sensor_id;sensor_type;location;lat;lon;timestamp;P1;durP1;ratioP1;P2;durP2;ratioP2
18378;SDS011;27025;51.986;5.984;2023-04-28T00:00:56;8.05;;;5.82;;
18378;SDS011;27025;51.986;5.984;2023-04-28T00:03:22;8.52;;;6.03;;
18378;SDS011;27025;51.986;5.984;2023-04-28T00:05:50;7.47;;;6.00;;
18378;SDS011;27025;51.986;5.984;2023-04-28T00:08:17;7.40;;;6.13;;
18378;SDS011;27025;51.986;5.984;2023-04-28T00:10:45;7.28;;;5.57;;
18378;SDS011;27025;51.986;5.984;2023-04-28T00:13:14;6.72;;;5.78;;
18378;SDS011;27025;51.986;5.984;2023-04-28T00:15:40;8.48;;;5.63;;
18378;SDS011;27025;51.986;5.984;2023-04-28T00:18:09;7.40;;;5.53;;
18378;SDS011;27025;51.986;5.984;2023-04-28T00:20:41;6.68;;;5.30;;
18378;SDS011;27025;51.986;5.984;2023-04-28T00:23:07;7.25;;;5.55;;
18378;SDS011;27025;51.986;5.984;2023-04-28T00:25:33;6.68;;;5.97;;
18378;SDS011;27025;51.986;5.984;2023-04-28T00:28:02;7.85;;;5.63;;
18378;SDS011;27025;51.986;5.984;2023-04-28T00:30:28;7.97;;;5.70;;
18378;SDS011;27025;51.986;5.984;2023-04-28T00:32:55;7.05;;;5.38;;
18378;SDS011;27025;51.986;5.984;2023-04-28T00:35:21;6.88;;;5.43;;
18378;SDS011;27025;51.986;5.984;2023-04-28T00:37:47;7.20;;;5.47;;
18378;SDS011;27025;51.986;5.984;2023-04-28T00:40:15;6.22;;;5.63;;
18378;SDS011;27025;51.986;5.984;2023-04-28T00:42:45;7.17;;;5.33;;
18378;SDS011;27025;51.986;5.984;2023-04-28T00:45:11;7.05;;;5.40;;
18378;SDS011;27025;51.986;5.984;2023-04-28T00:47:37;6.67;;;5.07;;
18378;SDS011;27025;51.986;5.984;2023-04-28T00:50:05;6.10;;;5.50;;
18378;SDS011;27025;51.986;5.984;2023-04-28T00:52:34;7.07;;;5.47;;
18378;SDS011;27025;51.986;5.984;2023-04-28T00:55:04;5.88;;;5.28;;
18378;SDS011;27025;51.986;5.984;2023-04-28T00:57:30;7.28;;;5.68;;
18378;SDS011;27025;51.986;5.984;2023-04-28T00:59:56;7.57;;;5.05;;
18378;SDS011;27025;51.986;5.984;2023-04-28T01:02:25;7.10;;;5.30;;
18378;SDS011;27025;51.986;5.984;2023-04-28T01:04:51;5.80;;;5.28;;
18378;SDS011;27025;51.986;5.984;2023-04-28T01:07:18;6.87;;;5.33;;
18378;SDS011;27025;51.986;5.984;2023-04-28T01:09:45;7.80;;;5.60;;
18378;SDS011;27025;51.986;5.984;2023-04-28T01:12:13;6.95;;;5.32;;
18378;SDS011;27025;51.986;5.984;2023-04-28T01:14:40;6.00;;;5.30;;
18378;SDS011;27025;51.986;5.984;2023-04-28T01:17:06;6.00;;;5.10;;
18378;SDS011;27025;51.986;5.984;2023-04-28T01:19:35;6.87;;;5.33;;
18378;SDS011;27025;51.986;5.984;2023-04-28T01:22:01;5.95;;;5.35;;
18378;SDS011;27025;51.986;5.984;2023-04-28T01:24:28;11.40;;;6.00;;
18378;SDS011;27025;51.986;5.984;2023-04-28T01:26:54;6.00;;;5.40;;
18378;SDS011;27025;51.986;5.984;2023-04-28T01:29:20;7.03;;;5.37;;
18378;SDS011;27025;51.986;5.984;2023-04-28T01:31:46;9.03;;;5.60;;
18378;SDS011;27025;51.986;5.984;2023-04-28T01:34:13;8.90;;;6.13;;
18378;SDS011;27025;51.986;5.984;2023-04-28T01:36:39;8.07;;;5.83;;
18378;SDS011;27025;51.986;5.984;2023-04-28T01:39:07;7.50;;;6.37;;
18378;SDS011;27025;51.986;5.984;2023-04-28T01:41:33;9.37;;;6.33;;
18378;SDS011;27025;51.986;5.984;2023-04-28T01:43:59;9.93;;;6.30;;
18378;SDS011;27025;51.986;5.984;2023-04-28T01:46:28;7.53;;;6.13;;
18378;SDS011;27025;51.986;5.984;2023-04-28T01:48:54;8.57;;;6.60;;
18378;SDS011;27025;51.986;5.984;2023-04-28T01:51:20;6.30;;;5.57;;
18378;SDS011;27025;51.986;5.984;2023-04-28T01:53:46;8.67;;;6.87;;
18378;SDS011;27025;51.986;5.984;2023-04-28T01:56:12;7.27;;;6.37;;
18378;SDS011;27025;51.986;5.984;2023-04-28T01:58:38;7.73;;;6.03;;
18378;SDS011;27025;51.986;5.984;2023-04-28T02:01:04;8.45;;;7.10;;
18378;SDS011;27025;51.986;5.984;2023-04-28T02:03:30;8.65;;;7.45;;
18378;SDS011;27025;51.986;5.984;2023-04-28T02:05:59;7.80;;;7.00;;
18378;SDS011;27025;51.986;5.984;2023-04-28T02:08:25;7.20;;;6.30;;
18378;SDS011;27025;51.986;5.984;2023-04-28T02:10:51;8.65;;;6.75;;
18378;SDS011;27025;51.986;5.984;2023-04-28T02:13:19;9.10;;;6.37;;
18378;SDS011;27025;51.986;5.984;2023-04-28T02:15:45;7.40;;;6.22;;
18378;SDS011;27025;51.986;5.984;2023-04-28T02:18:11;8.03;;;5.93;;
18378;SDS011;27025;51.986;5.984;2023-04-28T02:20:37;9.77;;;5.93;;
18378;SDS011;27025;51.986;5.984;2023-04-28T02:23:03;8.53;;;6.40;;
18378;SDS011;27025;51.986;5.984;2023-04-28T02:25:30;8.13;;;6.70;;
18378;SDS011;27025;51.986;5.984;2023-04-28T02:27:56;7.37;;;5.90;;
18378;SDS011;27025;51.986;5.984;2023-04-28T02:30:23;7.93;;;6.28;;
18378;SDS011;27025;51.986;5.984;2023-04-28T02:32:49;7.13;;;5.57;;
18378;SDS011;27025;51.986;5.984;2023-04-28T02:35:15;6.70;;;5.97;;
18378;SDS011;27025;51.986;5.984;2023-04-28T02:37:41;7.80;;;6.10;;
18378;SDS011;27025;51.986;5.984;2023-04-28T02:40:08;7.10;;;6.40;;
18378;SDS011;27025;51.986;5.984;2023-04-28T02:42:34;6.73;;;5.77;;
18378;SDS011;27025;51.986;5.984;2023-04-28T02:45:02;7.93;;;5.77;;
18378;SDS011;27025;51.986;5.984;2023-04-28T02:47:28;7.10;;;5.77;;
18378;SDS011;27025;51.986;5.984;2023-04-28T02:49:54;6.30;;;5.70;;
18378;SDS011;27025;51.986;5.984;2023-04-28T02:52:23;7.40;;;6.45;;
18378;SDS011;27025;51.986;5.984;2023-04-28T02:54:49;9.87;;;6.00;;
18378;SDS011;27025;51.986;5.984;2023-04-28T02:57:18;6.97;;;6.07;;
18378;SDS011;27025;51.986;5.984;2023-04-28T02:59:44;7.73;;;5.53;;
18378;SDS011;27025;51.986;5.984;2023-04-28T03:02:10;7.30;;;6.30;;
18378;SDS011;27025;51.986;5.984;2023-04-28T03:04:36;6.30;;;5.63;;
18378;SDS011;27025;51.986;5.984;2023-04-28T03:07:02;7.47;;;5.50;;
18378;SDS011;27025;51.986;5.984;2023-04-28T03:09:29;8.20;;;5.60;;
18378;SDS011;27025;51.986;5.984;2023-04-28T03:11:55;7.18;;;6.28;;
18378;SDS011;27025;51.986;5.984;2023-04-28T03:14:21;7.93;;;5.90;;
18378;SDS011;27025;51.986;5.984;2023-04-28T03:16:47;6.80;;;5.53;;
18378;SDS011;27025;51.986;5.984;2023-04-28T03:19:16;6.47;;;5.87;;
18378;SDS011;27025;51.986;5.984;2023-04-28T03:21:42;7.47;;;6.00;;
18378;SDS011;27025;51.986;5.984;2023-04-28T03:24:08;6.90;;;5.80;;
18378;SDS011;27025;51.986;5.984;2023-04-28T03:26:34;7.60;;;5.80;;
18378;SDS011;27025;51.986;5.984;2023-04-28T03:29:03;8.40;;;6.03;;
18378;SDS011;27025;51.986;5.984;2023-04-28T03:31:29;7.90;;;6.03;;
18378;SDS011;27025;51.986;5.984;2023-04-28T03:33:55;7.03;;;5.97;;
18378;SDS011;27025;51.986;5.984;2023-04-28T03:36:23;8.23;;;5.67;;
18378;SDS011;27025;51.986;5.984;2023-04-28T03:38:49;6.43;;;5.83;;
18378;SDS011;27025;51.986;5.984;2023-04-28T03:41:16;6.93;;;6.27;;
18378;SDS011;27025;51.986;5.984;2023-04-28T03:43:42;8.43;;;6.20;;
18378;SDS011;27025;51.986;5.984;2023-04-28T03:46:10;8.50;;;6.17;;
18378;SDS011;27025;51.986;5.984;2023-04-28T03:48:36;7.23;;;6.00;;
18378;SDS011;27025;51.986;5.984;2023-04-28T03:51:02;8.80;;;6.40;;
18378;SDS011;27025;51.986;5.984;2023-04-28T03:53:29;8.67;;;6.30;;
18378;SDS011;27025;51.986;5.984;2023-04-28T03:55:57;8.40;;;6.73;;
18378;SDS011;27025;51.986;5.984;2023-04-28T03:58:23;9.63;;;6.43;;
18378;SDS011;27025;51.986;5.984;2023-04-28T04:00:49;7.23;;;6.13;;
18378;SDS011;27025;51.986;5.984;2023-04-28T04:03:18;11.27;;;6.70;;
18378;SDS011;27025;51.986;5.984;2023-04-28T04:05:45;7.53;;;6.30;;
18378;SDS011;27025;51.986;5.984;2023-04-28T04:08:12;9.63;;;6.57;;
18378;SDS011;27025;51.986;5.984;2023-04-28T04:10:40;8.17;;;6.73;;
18378;SDS011;27025;51.986;5.984;2023-04-28T04:13:09;7.85;;;6.80;;
18378;SDS011;27025;51.986;5.984;2023-04-28T04:15:35;7.97;;;7.10;;
18378;SDS011;27025;51.986;5.984;2023-04-28T04:18:01;8.60;;;6.43;;
18378;SDS011;27025;51.986;5.984;2023-04-28T04:20:27;7.80;;;7.00;;
18378;SDS011;27025;51.986;5.984;2023-04-28T04:22:53;8.85;;;7.95;;
18378;SDS011;27025;51.986;5.984;2023-04-28T04:25:19;9.57;;;8.40;;
18378;SDS011;27025;51.986;5.984;2023-04-28T04:27:45;9.30;;;7.37;;
18378;SDS011;27025;51.986;5.984;2023-04-28T04:30:11;9.73;;;7.40;;
18378;SDS011;27025;51.986;5.984;2023-04-28T04:32:38;9.90;;;7.70;;
18378;SDS011;27025;51.986;5.984;2023-04-28T04:35:04;9.63;;;7.88;;
18378;SDS011;27025;51.986;5.984;2023-04-28T04:37:30;9.10;;;7.57;;
18378;SDS011;27025;51.986;5.984;2023-04-28T04:39:56;8.57;;;7.55;;
18378;SDS011;27025;51.986;5.984;2023-04-28T04:42:22;9.70;;;8.70;;
18378;SDS011;27025;51.986;5.984;2023-04-28T04:44:48;8.60;;;7.60;;
18378;SDS011;27025;51.986;5.984;2023-04-28T04:47:14;10.07;;;7.53;;
18378;SDS011;27025;51.986;5.984;2023-04-28T04:49:43;9.23;;;8.25;;
18378;SDS011;27025;51.986;5.984;2023-04-28T04:52:09;9.88;;;8.88;;
18378;SDS011;27025;51.986;5.984;2023-04-28T04:54:35;10.37;;;8.10;;
18378;SDS011;27025;51.986;5.984;2023-04-28T04:57:01;11.90;;;7.63;;
18378;SDS011;27025;51.986;5.984;2023-04-28T04:59:30;9.70;;;8.80;;
18378;SDS011;27025;51.986;5.984;2023-04-28T05:01:56;9.43;;;8.47;;
18378;SDS011;27025;51.986;5.984;2023-04-28T05:04:22;9.40;;;8.40;;
18378;SDS011;27025;51.986;5.984;2023-04-28T05:06:49;10.93;;;8.75;;
18378;SDS011;27025;51.986;5.984;2023-04-28T05:09:15;9.73;;;8.17;;
18378;SDS011;27025;51.986;5.984;2023-04-28T05:11:41;11.57;;;8.63;;
18378;SDS011;27025;51.986;5.984;2023-04-28T05:14:07;11.52;;;9.18;;
18378;SDS011;27025;51.986;5.984;2023-04-28T05:16:36;9.50;;;8.43;;
18378;SDS011;27025;51.986;5.984;2023-04-28T05:19:02;10.97;;;8.87;;
18378;SDS011;27025;51.986;5.984;2023-04-28T05:21:28;11.40;;;9.20;;
18378;SDS011;27025;51.986;5.984;2023-04-28T05:23:55;11.13;;;10.00;;
18378;SDS011;27025;51.986;5.984;2023-04-28T05:26:24;15.73;;;9.20;;
18378;SDS011;27025;51.986;5.984;2023-04-28T05:28:50;11.65;;;10.23;;
18378;SDS011;27025;51.986;5.984;2023-04-28T05:31:16;11.55;;;10.07;;
18378;SDS011;27025;51.986;5.984;2023-04-28T05:33:45;13.60;;;11.18;;
18378;SDS011;27025;51.986;5.984;2023-04-28T05:36:11;12.53;;;9.57;;
18378;SDS011;27025;51.986;5.984;2023-04-28T05:38:37;11.97;;;9.63;;
18378;SDS011;27025;51.986;5.984;2023-04-28T05:41:06;13.00;;;10.00;;
18378;SDS011;27025;51.986;5.984;2023-04-28T05:43:32;12.50;;;10.77;;
18378;SDS011;27025;51.986;5.984;2023-04-28T05:45:58;16.60;;;11.27;;
18378;SDS011;27025;51.986;5.984;2023-04-28T05:48:25;12.30;;;10.20;;
18378;SDS011;27025;51.986;5.984;2023-04-28T05:50:51;13.07;;;11.53;;
18378;SDS011;27025;51.986;5.984;2023-04-28T05:53:17;12.93;;;11.20;;
18378;SDS011;27025;51.986;5.984;2023-04-28T05:55:43;16.43;;;11.70;;
18378;SDS011;27025;51.986;5.984;2023-04-28T05:58:09;16.13;;;11.13;;
18378;SDS011;27025;51.986;5.984;2023-04-28T06:00:38;17.90;;;11.97;;
18378;SDS011;27025;51.986;5.984;2023-04-28T06:03:04;16.27;;;12.37;;
18378;SDS011;27025;51.986;5.984;2023-04-28T06:05:30;14.53;;;11.50;;
18378;SDS011;27025;51.986;5.984;2023-04-28T06:07:56;15.82;;;13.75;;
18378;SDS011;27025;51.986;5.984;2023-04-28T06:10:27;15.10;;;12.53;;
18378;SDS011;27025;51.986;5.984;2023-04-28T06:12:53;15.57;;;13.80;;
18378;SDS011;27025;51.986;5.984;2023-04-28T06:15:19;16.37;;;14.53;;
18378;SDS011;27025;51.986;5.984;2023-04-28T06:17:48;15.32;;;13.73;;
18378;SDS011;27025;51.986;5.984;2023-04-28T06:20:14;18.00;;;14.13;;
18378;SDS011;27025;51.986;5.984;2023-04-28T06:22:40;20.33;;;14.80;;
18378;SDS011;27025;51.986;5.984;2023-04-28T06:25:11;19.45;;;16.95;;
18378;SDS011;27025;51.986;5.984;2023-04-28T06:27:37;17.73;;;14.97;;
18378;SDS011;27025;51.986;5.984;2023-04-28T06:30:03;20.27;;;14.97;;
18378;SDS011;27025;51.986;5.984;2023-04-28T06:32:29;23.30;;;15.87;;
18378;SDS011;27025;51.986;5.984;2023-04-28T06:34:55;21.30;;;16.33;;
18378;SDS011;27025;51.986;5.984;2023-04-28T06:37:21;19.90;;;17.00;;
18378;SDS011;27025;51.986;5.984;2023-04-28T06:39:48;19.00;;;17.00;;
18378;SDS011;27025;51.986;5.984;2023-04-28T06:42:16;20.77;;;16.47;;
18378;SDS011;27025;51.986;5.984;2023-04-28T06:44:44;21.20;;;16.90;;
18378;SDS011;27025;51.986;5.984;2023-04-28T06:47:10;19.50;;;16.67;;
18378;SDS011;27025;51.986;5.984;2023-04-28T06:49:39;21.40;;;17.33;;
18378;SDS011;27025;51.986;5.984;2023-04-28T06:52:07;18.33;;;16.53;;
18378;SDS011;27025;51.986;5.984;2023-04-28T06:54:33;20.73;;;18.07;;
18378;SDS011;27025;51.986;5.984;2023-04-28T06:57:02;22.27;;;18.50;;
18378;SDS011;27025;51.986;5.984;2023-04-28T06:59:28;23.40;;;18.70;;
18378;SDS011;27025;51.986;5.984;2023-04-28T07:01:54;24.43;;;18.53;;
18378;SDS011;27025;51.986;5.984;2023-04-28T07:04:24;26.80;;;19.03;;
18378;SDS011;27025;51.986;5.984;2023-04-28T07:06:50;21.57;;;19.27;;
18378;SDS011;27025;51.986;5.984;2023-04-28T07:09:16;21.77;;;19.47;;
18378;SDS011;27025;51.986;5.984;2023-04-28T07:11:42;23.57;;;19.37;;
18378;SDS011;27025;51.986;5.984;2023-04-28T07:14:11;25.37;;;19.07;;
18378;SDS011;27025;51.986;5.984;2023-04-28T07:16:37;24.27;;;20.30;;
18378;SDS011;27025;51.986;5.984;2023-04-28T07:19:03;24.40;;;19.23;;
18378;SDS011;27025;51.986;5.984;2023-04-28T07:21:31;22.50;;;19.47;;
18378;SDS011;27025;51.986;5.984;2023-04-28T07:23:58;23.33;;;19.40;;
18378;SDS011;27025;51.986;5.984;2023-04-28T07:26:24;22.33;;;19.87;;
18378;SDS011;27025;51.986;5.984;2023-04-28T07:28:50;22.67;;;20.20;;
18378;SDS011;27025;51.986;5.984;2023-04-28T07:31:16;23.53;;;20.03;;
18378;SDS011;27025;51.986;5.984;2023-04-28T07:33:42;23.67;;;20.20;;
18378;SDS011;27025;51.986;5.984;2023-04-28T07:36:08;22.10;;;19.80;;
18378;SDS011;27025;51.986;5.984;2023-04-28T07:38:35;22.80;;;20.13;;
18378;SDS011;27025;51.986;5.984;2023-04-28T07:41:01;20.75;;;18.33;;
18378;SDS011;27025;51.986;5.984;2023-04-28T07:43:28;23.40;;;16.93;;
18378;SDS011;27025;51.986;5.984;2023-04-28T07:45:54;23.23;;;19.23;;
18378;SDS011;27025;51.986;5.984;2023-04-28T07:48:21;20.40;;;17.33;;
18378;SDS011;27025;51.986;5.984;2023-04-28T07:50:47;19.20;;;17.10;;
18378;SDS011;27025;51.986;5.984;2023-04-28T07:53:13;18.60;;;16.60;;
18378;SDS011;27025;51.986;5.984;2023-04-28T07:55:39;21.87;;;18.20;;
18378;SDS011;27025;51.986;5.984;2023-04-28T07:58:09;25.85;;;23.33;;
18378;SDS011;27025;51.986;5.984;2023-04-28T08:00:35;24.00;;;20.43;;
18378;SDS011;27025;51.986;5.984;2023-04-28T08:03:01;23.30;;;20.03;;
18378;SDS011;27025;51.986;5.984;2023-04-28T08:05:27;27.17;;;20.93;;
18378;SDS011;27025;51.986;5.984;2023-04-28T08:07:56;23.80;;;20.43;;
18378;SDS011;27025;51.986;5.984;2023-04-28T08:10:22;25.07;;;20.93;;
18378;SDS011;27025;51.986;5.984;2023-04-28T08:12:50;24.67;;;21.37;;
18378;SDS011;27025;51.986;5.984;2023-04-28T08:15:19;24.20;;;21.70;;
18378;SDS011;27025;51.986;5.984;2023-04-28T08:17:45;25.37;;;20.70;;
18378;SDS011;27025;51.986;5.984;2023-04-28T08:20:11;24.83;;;20.93;;
18378;SDS011;27025;51.986;5.984;2023-04-28T08:22:39;25.03;;;20.73;;
18378;SDS011;27025;51.986;5.984;2023-04-28T08:25:06;23.67;;;21.13;;
18378;SDS011;27025;51.986;5.984;2023-04-28T08:27:32;26.20;;;21.60;;
18378;SDS011;27025;51.986;5.984;2023-04-28T08:29:58;27.23;;;21.30;;
18378;SDS011;27025;51.986;5.984;2023-04-28T08:32:27;25.80;;;21.27;;
18378;SDS011;27025;51.986;5.984;2023-04-28T08:34:53;26.83;;;21.60;;
18378;SDS011;27025;51.986;5.984;2023-04-28T08:37:19;24.37;;;20.13;;
18378;SDS011;27025;51.986;5.984;2023-04-28T08:39:48;26.57;;;20.60;;
18378;SDS011;27025;51.986;5.984;2023-04-28T08:42:14;25.87;;;20.60;;
18378;SDS011;27025;51.986;5.984;2023-04-28T08:44:43;22.33;;;19.03;;
18378;SDS011;27025;51.986;5.984;2023-04-28T08:47:12;23.40;;;19.97;;
18378;SDS011;27025;51.986;5.984;2023-04-28T08:49:38;22.43;;;19.77;;
18378;SDS011;27025;51.986;5.984;2023-04-28T08:52:11;22.37;;;20.07;;
18378;SDS011;27025;51.986;5.984;2023-04-28T08:54:37;24.77;;;19.43;;
18378;SDS011;27025;51.986;5.984;2023-04-28T08:57:07;23.37;;;20.63;;
18378;SDS011;27025;51.986;5.984;2023-04-28T08:59:33;23.03;;;20.07;;
18378;SDS011;27025;51.986;5.984;2023-04-28T09:01:59;24.07;;;20.00;;
18378;SDS011;27025;51.986;5.984;2023-04-28T09:04:25;23.40;;;21.00;;
18378;SDS011;27025;51.986;5.984;2023-04-28T09:06:51;25.17;;;20.90;;
18378;SDS011;27025;51.986;5.984;2023-04-28T09:09:19;23.80;;;21.33;;
18378;SDS011;27025;51.986;5.984;2023-04-28T09:14:24;23.90;;;21.17;;
18378;SDS011;27025;51.986;5.984;2023-04-28T09:16:53;22.83;;;20.20;;
18378;SDS011;27025;51.986;5.984;2023-04-28T09:19:19;23.00;;;20.53;;
18378;SDS011;27025;51.986;5.984;2023-04-28T09:21:46;23.00;;;20.60;;
18378;SDS011;27025;51.986;5.984;2023-04-28T09:24:27;24.03;;;20.60;;
18378;SDS011;27025;51.986;5.984;2023-04-28T09:26:54;21.60;;;19.30;;
18378;SDS011;27025;51.986;5.984;2023-04-28T09:29:20;23.10;;;20.53;;
18378;SDS011;27025;51.986;5.984;2023-04-28T09:31:46;22.77;;;20.33;;
18378;SDS011;27025;51.986;5.984;2023-04-28T09:34:12;24.40;;;21.80;;
18378;SDS011;27025;51.986;5.984;2023-04-28T09:36:39;26.30;;;20.90;;
18378;SDS011;27025;51.986;5.984;2023-04-28T09:39:06;22.97;;;20.50;;
18378;SDS011;27025;51.986;5.984;2023-04-28T09:41:35;24.43;;;20.33;;
18378;SDS011;27025;51.986;5.984;2023-04-28T09:44:15;25.02;;;22.30;;
18378;SDS011;27025;51.986;5.984;2023-04-28T09:46:45;26.63;;;23.83;;
18378;SDS011;27025;51.986;5.984;2023-04-28T09:49:11;26.27;;;23.60;;
18378;SDS011;27025;51.986;5.984;2023-04-28T09:51:37;25.65;;;22.90;;
18378;SDS011;27025;51.986;5.984;2023-04-28T09:54:03;25.38;;;22.85;;
18378;SDS011;27025;51.986;5.984;2023-04-28T09:56:30;27.00;;;24.35;;
18378;SDS011;27025;51.986;5.984;2023-04-28T09:58:57;26.70;;;24.00;;
18378;SDS011;27025;51.986;5.984;2023-04-28T10:01:23;25.48;;;22.88;;
18378;SDS011;27025;51.986;5.984;2023-04-28T10:03:52;26.55;;;23.90;;
18378;SDS011;27025;51.986;5.984;2023-04-28T10:06:18;26.42;;;23.73;;
18378;SDS011;27025;51.986;5.984;2023-04-28T10:08:45;27.25;;;24.20;;
18378;SDS011;27025;51.986;5.984;2023-04-28T10:11:13;27.63;;;24.75;;
18378;SDS011;27025;51.986;5.984;2023-04-28T10:13:40;27.35;;;24.60;;
18378;SDS011;27025;51.986;5.984;2023-04-28T10:16:07;27.33;;;24.67;;
18378;SDS011;27025;51.986;5.984;2023-04-28T10:18:37;27.48;;;24.58;;
18378;SDS011;27025;51.986;5.984;2023-04-28T10:21:03;26.15;;;23.48;;
18378;SDS011;27025;51.986;5.984;2023-04-28T10:26:00;26.38;;;23.70;;
18378;SDS011;27025;51.986;5.984;2023-04-28T10:28:27;25.98;;;23.30;;
18378;SDS011;27025;51.986;5.984;2023-04-28T10:31:15;25.98;;;23.48;;
18378;SDS011;27025;51.986;5.984;2023-04-28T10:33:41;26.60;;;23.98;;
18378;SDS011;27025;51.986;5.984;2023-04-28T10:36:08;27.67;;;24.95;;
18378;SDS011;27025;51.986;5.984;2023-04-28T10:38:34;27.67;;;25.00;;
18378;SDS011;27025;51.986;5.984;2023-04-28T10:41:01;29.33;;;26.58;;
18378;SDS011;27025;51.986;5.984;2023-04-28T10:48:50;31.38;;;28.27;;
18378;SDS011;27025;51.986;5.984;2023-04-28T10:56:16;34.92;;;31.45;;
18378;SDS011;27025;51.986;5.984;2023-04-28T10:58:49;35.37;;;32.03;;
18378;SDS011;27025;51.986;5.984;2023-04-28T11:06:16;33.57;;;30.23;;
18378;SDS011;27025;51.986;5.984;2023-04-28T11:08:44;39.72;;;35.83;;
18378;SDS011;27025;51.986;5.984;2023-04-28T11:11:10;39.60;;;35.85;;
18378;SDS011;27025;51.986;5.984;2023-04-28T11:13:38;40.30;;;36.63;;
18378;SDS011;27025;51.986;5.984;2023-04-28T11:16:05;39.58;;;35.97;;
18378;SDS011;27025;51.986;5.984;2023-04-28T11:21:16;39.97;;;36.07;;
18378;SDS011;27025;51.986;5.984;2023-04-28T11:23:45;36.45;;;33.05;;
18378;SDS011;27025;51.986;5.984;2023-04-28T11:26:11;33.40;;;30.40;;
18378;SDS011;27025;51.986;5.984;2023-04-28T11:28:53;28.43;;;25.83;;
18378;SDS011;27025;51.986;5.984;2023-04-28T11:31:20;27.33;;;25.03;;
18378;SDS011;27025;51.986;5.984;2023-04-28T11:33:52;28.58;;;26.17;;
18378;SDS011;27025;51.986;5.984;2023-04-28T11:38:48;26.48;;;24.27;;
18378;SDS011;27025;51.986;5.984;2023-04-28T11:41:17;26.55;;;24.20;;
18378;SDS011;27025;51.986;5.984;2023-04-28T11:43:43;22.10;;;20.20;;
18378;SDS011;27025;51.986;5.984;2023-04-28T11:46:09;19.73;;;18.03;;
18378;SDS011;27025;51.986;5.984;2023-04-28T11:48:40;19.47;;;17.73;;
18378;SDS011;27025;51.986;5.984;2023-04-28T11:51:06;21.63;;;19.53;;
18378;SDS011;27025;51.986;5.984;2023-04-28T11:53:42;20.60;;;18.70;;
18378;SDS011;27025;51.986;5.984;2023-04-28T11:56:08;20.43;;;18.63;;
18378;SDS011;27025;51.986;5.984;2023-04-28T11:58:36;20.17;;;18.27;;
18378;SDS011;27025;51.986;5.984;2023-04-28T12:01:05;19.33;;;17.63;;
18378;SDS011;27025;51.986;5.984;2023-04-28T12:03:32;19.93;;;18.13;;
18378;SDS011;27025;51.986;5.984;2023-04-28T12:05:58;21.00;;;19.03;;
18378;SDS011;27025;51.986;5.984;2023-04-28T12:08:27;22.47;;;20.33;;
18378;SDS011;27025;51.986;5.984;2023-04-28T12:11:06;22.40;;;20.30;;
18378;SDS011;27025;51.986;5.984;2023-04-28T12:13:36;22.23;;;20.00;;
18378;SDS011;27025;51.986;5.984;2023-04-28T12:16:03;22.80;;;20.60;;
18378;SDS011;27025;51.986;5.984;2023-04-28T12:18:32;22.10;;;20.10;;
18378;SDS011;27025;51.986;5.984;2023-04-28T12:20:59;24.77;;;22.55;;
18378;SDS011;27025;51.986;5.984;2023-04-28T12:23:31;25.98;;;23.52;;
18378;SDS011;27025;51.986;5.984;2023-04-28T12:25:58;27.73;;;25.23;;
18378;SDS011;27025;51.986;5.984;2023-04-28T12:28:37;25.75;;;23.35;;
18378;SDS011;27025;51.986;5.984;2023-04-28T12:31:07;24.38;;;22.20;;
18378;SDS011;27025;51.986;5.984;2023-04-28T12:33:34;21.52;;;19.52;;
18378;SDS011;27025;51.986;5.984;2023-04-28T12:36:04;19.52;;;17.73;;
18378;SDS011;27025;51.986;5.984;2023-04-28T12:38:31;21.27;;;19.25;;
18378;SDS011;27025;51.986;5.984;2023-04-28T12:40:57;20.70;;;18.60;;
18378;SDS011;27025;51.986;5.984;2023-04-28T12:43:26;20.20;;;18.45;;
18378;SDS011;27025;51.986;5.984;2023-04-28T12:45:53;20.83;;;18.85;;
18378;SDS011;27025;51.986;5.984;2023-04-28T12:48:20;21.10;;;19.08;;
18378;SDS011;27025;51.986;5.984;2023-04-28T12:50:49;22.60;;;20.40;;
18378;SDS011;27025;51.986;5.984;2023-04-28T12:53:15;22.75;;;20.63;;
18378;SDS011;27025;51.986;5.984;2023-04-28T12:55:44;19.67;;;17.67;;
18378;SDS011;27025;51.986;5.984;2023-04-28T12:58:10;20.45;;;17.75;;
18378;SDS011;27025;51.986;5.984;2023-04-28T13:00:36;23.25;;;20.95;;
18378;SDS011;27025;51.986;5.984;2023-04-28T13:03:02;22.87;;;20.60;;
18378;SDS011;27025;51.986;5.984;2023-04-28T13:05:28;21.42;;;19.45;;
18378;SDS011;27025;51.986;5.984;2023-04-28T13:07:55;19.20;;;17.40;;
18378;SDS011;27025;51.986;5.984;2023-04-28T13:10:23;18.40;;;16.60;;
18378;SDS011;27025;51.986;5.984;2023-04-28T13:12:50;18.17;;;16.57;;
18378;SDS011;27025;51.986;5.984;2023-04-28T13:15:19;17.17;;;15.50;;
18378;SDS011;27025;51.986;5.984;2023-04-28T13:17:45;17.23;;;15.65;;
18378;SDS011;27025;51.986;5.984;2023-04-28T13:20:12;17.37;;;15.77;;
18378;SDS011;27025;51.986;5.984;2023-04-28T13:22:38;16.85;;;15.35;;
18378;SDS011;27025;51.986;5.984;2023-04-28T13:25:05;16.20;;;14.73;;
18378;SDS011;27025;51.986;5.984;2023-04-28T13:27:31;15.90;;;14.40;;
18378;SDS011;27025;51.986;5.984;2023-04-28T13:29:57;15.57;;;14.07;;
18378;SDS011;27025;51.986;5.984;2023-04-28T13:32:26;15.10;;;13.75;;
18378;SDS011;27025;51.986;5.984;2023-04-28T13:34:53;14.15;;;12.85;;
18378;SDS011;27025;51.986;5.984;2023-04-28T13:37:19;14.30;;;13.00;;
18378;SDS011;27025;51.986;5.984;2023-04-28T13:39:45;13.43;;;12.32;;
18378;SDS011;27025;51.986;5.984;2023-04-28T13:42:14;13.55;;;12.25;;
18378;SDS011;27025;51.986;5.984;2023-04-28T13:44:40;12.60;;;11.38;;
18378;SDS011;27025;51.986;5.984;2023-04-28T13:47:06;12.60;;;11.45;;
18378;SDS011;27025;51.986;5.984;2023-04-28T13:49:33;12.85;;;11.57;;
18378;SDS011;27025;51.986;5.984;2023-04-28T13:52:01;12.18;;;11.07;;
18378;SDS011;27025;51.986;5.984;2023-04-28T13:54:27;12.35;;;11.25;;
18378;SDS011;27025;51.986;5.984;2023-04-28T13:56:56;12.63;;;11.43;;
18378;SDS011;27025;51.986;5.984;2023-04-28T13:59:22;12.73;;;11.63;;
18378;SDS011;27025;51.986;5.984;2023-04-28T14:01:48;12.80;;;11.60;;
18378;SDS011;27025;51.986;5.984;2023-04-28T14:04:14;12.57;;;11.48;;
18378;SDS011;27025;51.986;5.984;2023-04-28T14:06:42;12.43;;;11.33;;
18378;SDS011;27025;51.986;5.984;2023-04-28T14:09:08;12.55;;;11.45;;
18378;SDS011;27025;51.986;5.984;2023-04-28T14:11:35;12.88;;;11.77;;
18378;SDS011;27025;51.986;5.984;2023-04-28T14:14:01;13.10;;;11.90;;
18378;SDS011;27025;51.986;5.984;2023-04-28T14:16:27;13.20;;;12.07;;
18378;SDS011;27025;51.986;5.984;2023-04-28T14:18:54;13.23;;;12.00;;
18378;SDS011;27025;51.986;5.984;2023-04-28T14:21:20;14.40;;;13.10;;
18378;SDS011;27025;51.986;5.984;2023-04-28T14:23:46;13.98;;;12.70;;
18378;SDS011;27025;51.986;5.984;2023-04-28T14:26:14;11.52;;;10.52;;
18378;SDS011;27025;51.986;5.984;2023-04-28T14:28:40;11.30;;;10.30;;
18378;SDS011;27025;51.986;5.984;2023-04-28T14:31:06;10.30;;;9.40;;
18378;SDS011;27025;51.986;5.984;2023-04-28T14:33:33;10.30;;;9.40;;
18378;SDS011;27025;51.986;5.984;2023-04-28T14:36:01;10.50;;;9.50;;
18378;SDS011;27025;51.986;5.984;2023-04-28T14:38:28;10.32;;;9.48;;
18378;SDS011;27025;51.986;5.984;2023-04-28T14:40:57;9.85;;;9.15;;
18378;SDS011;27025;51.986;5.984;2023-04-28T14:43:23;9.27;;;8.50;;
18378;SDS011;27025;51.986;5.984;2023-04-28T14:45:49;8.73;;;8.02;;
18378;SDS011;27025;51.986;5.984;2023-04-28T14:48:15;7.80;;;7.20;;
18378;SDS011;27025;51.986;5.984;2023-04-28T14:50:44;7.60;;;7.00;;
18378;SDS011;27025;51.986;5.984;2023-04-28T14:53:10;7.80;;;7.10;;
18378;SDS011;27025;51.986;5.984;2023-04-28T14:55:36;7.88;;;7.28;;